createdAt,value
2015-11-02T00:00:06.278Z,11.55
2015-11-02T00:00:18.590Z,11.46
2015-11-02T00:00:30.903Z,11.55
2015-11-02T00:00:43.200Z,11.46
2015-11-02T00:00:55.513Z,11.74
2015-11-02T00:01:07.810Z,11.55
2015-11-02T00:01:20.138Z,11.55
2015-11-02T00:01:32.435Z,11.46
2015-11-02T00:01:44.732Z,11.27
2015-11-02T00:01:57.031Z,11.27
2015-11-02T00:02:09.343Z,11.18
2015-11-02T00:02:21.656Z,11.27
2015-11-02T00:02:33.953Z,11.08
2015-11-02T00:02:46.249Z,11.08
2015-11-02T00:02:58.564Z,11.08
2015-11-02T00:03:10.861Z,11.08
2015-11-02T00:03:23.158Z,11.27
2015-11-02T00:03:35.455Z,11.46
2015-11-02T00:03:47.767Z,11.36
2015-11-02T00:04:00.082Z,11.08
2015-11-02T00:04:12.363Z,11.18
2015-11-02T00:04:24.660Z,11.18
2015-11-02T00:04:36.957Z,11.08
2015-11-02T00:04:49.285Z,11.08
2015-11-02T00:05:01.569Z,11.08
2015-11-02T00:05:13.866Z,11.18
2015-11-02T00:05:26.178Z,11.08
2015-11-02T00:05:38.475Z,11.27
2015-11-02T00:05:50.788Z,11.18
2015-11-02T00:06:03.087Z,11.27
2015-11-02T00:06:15.383Z,11.18
2015-11-02T00:06:27.680Z,11.27
2015-11-02T00:06:40.008Z,11.18
2015-11-02T00:06:52.305Z,11.36
2015-11-02T00:07:04.604Z,11.36
2015-11-02T00:07:16.901Z,11.46
2015-11-02T00:07:29.229Z,11.46
2015-11-02T00:07:41.526Z,11.46
2015-11-02T00:07:53.823Z,11.36
2015-11-02T00:08:06.123Z,11.27
2015-11-02T00:08:18.435Z,10.99
2015-11-02T00:08:30.748Z,11.27
2015-11-02T00:08:43.045Z,11.08
2015-11-02T00:08:55.344Z,10.89
2015-11-02T00:09:07.656Z,11.08
2015-11-02T00:09:19.953Z,10.8
2015-11-02T00:09:32.250Z,10.8
2015-11-02T00:09:44.547Z,10.8
2015-11-02T00:09:56.846Z,10.8
2015-11-02T00:10:09.158Z,10.89
2015-11-02T00:10:21.455Z,10.8
2015-11-02T00:10:33.752Z,10.89
2015-11-02T00:10:46.064Z,10.89
2015-11-02T00:10:58.380Z,10.89
2015-11-02T00:11:10.677Z,10.8
2015-11-02T00:11:22.974Z,10.89
2015-11-02T00:11:35.270Z,10.89
2015-11-02T00:11:47.599Z,10.89
2015-11-02T00:11:59.897Z,10.8
2015-11-02T00:12:12.194Z,10.89
2015-11-02T00:12:24.491Z,10.71
2015-11-02T00:12:36.804Z,10.89
2015-11-02T00:12:49.101Z,10.8
2015-11-02T00:13:01.416Z,10.71
2015-11-02T00:13:13.713Z,10.89
2015-11-02T00:13:26.010Z,11.08
2015-11-02T00:13:38.338Z,11.08
2015-11-02T00:13:50.666Z,10.89
2015-11-02T00:14:02.965Z,11.18
2015-11-02T00:14:15.262Z,11.36
2015-11-02T00:14:27.574Z,11.46
2015-11-02T00:14:39.871Z,11.55
2015-11-02T00:14:52.168Z,11.55
2015-11-02T00:15:04.468Z,11.55
2015-11-02T00:15:16.780Z,11.27
2015-11-02T00:15:29.093Z,11.36
2015-11-02T00:15:41.390Z,11.36
2015-11-02T00:15:53.702Z,11.55
2015-11-02T00:16:06.002Z,11.55
2015-11-02T00:16:18.330Z,11.46
2015-11-02T00:16:30.627Z,11.46
2015-11-02T00:16:42.908Z,11.46
2015-11-02T00:16:55.221Z,11.65
2015-11-02T00:17:07.536Z,11.65
2015-11-02T00:17:19.833Z,11.65
2015-11-02T00:17:32.146Z,11.55
2015-11-02T00:17:44.443Z,11.55
2015-11-02T00:17:56.757Z,11.46
2015-11-02T00:18:09.070Z,11.46
2015-11-02T00:18:21.382Z,11.55
2015-11-02T00:18:33.679Z,11.46
2015-11-02T00:18:46.007Z,11.46
2015-11-02T00:18:58.323Z,11.55
2015-11-02T00:19:10.620Z,11.46
2015-11-02T00:19:22.916Z,11.65
2015-11-02T00:19:35.229Z,11.55
2015-11-02T00:19:47.526Z,11.46
2015-11-02T00:19:59.826Z,11.55
2015-11-02T00:20:12.123Z,11.74
2015-11-02T00:20:24.435Z,11.74
2015-11-02T00:20:36.748Z,11.74
2015-11-02T00:20:48.888Z,11.83
2015-11-02T00:21:01.187Z,11.83
2015-11-02T00:21:13.484Z,11.65
2015-11-02T00:21:25.796Z,12.02
2015-11-02T00:21:38.109Z,12.02
2015-11-02T00:21:50.421Z,11.65
2015-11-02T00:22:02.721Z,11.74
2015-11-02T00:22:15.034Z,11.83
2015-11-02T00:22:27.331Z,11.74
2015-11-02T00:22:39.643Z,11.74
2015-11-02T00:22:51.940Z,11.93
2015-11-02T00:23:04.256Z,11.74
2015-11-02T00:23:16.584Z,11.93
2015-11-02T00:23:28.865Z,11.74
2015-11-02T00:23:41.162Z,11.74
2015-11-02T00:23:53.474Z,11.65
2015-11-02T00:24:05.804Z,11.74
2015-11-02T00:24:18.101Z,11.83
2015-11-02T00:24:30.398Z,11.74
2015-11-02T00:24:42.695Z,11.74
2015-11-02T00:24:55.023Z,11.74
2015-11-02T00:25:07.323Z,11.74
2015-11-02T00:25:19.620Z,11.65
2015-11-02T00:25:31.917Z,11.93
2015-11-02T00:25:44.229Z,11.83
2015-11-02T00:25:56.544Z,11.74
2015-11-02T00:26:08.841Z,11.65
2015-11-02T00:26:21.138Z,12.21
2015-11-02T00:26:33.450Z,12.02
2015-11-02T00:26:45.763Z,11.93
2015-11-02T00:26:58.062Z,12.12
2015-11-02T00:27:10.375Z,12.21
2015-11-02T00:27:22.672Z,12.21
2015-11-02T00:27:34.984Z,12.12
2015-11-02T00:27:47.281Z,12.02
2015-11-02T00:27:59.581Z,12.21
2015-11-02T00:28:11.894Z,12.12
2015-11-02T00:28:24.206Z,11.74
2015-11-02T00:28:36.503Z,12.02
2015-11-02T00:28:48.800Z,11.93
2015-11-02T00:29:01.100Z,11.83
2015-11-02T00:29:13.428Z,11.93
2015-11-02T00:29:25.725Z,11.93
2015-11-02T00:29:38.022Z,12.02
2015-11-02T00:29:50.318Z,12.02
2015-11-02T00:30:02.633Z,12.02
2015-11-02T00:30:14.961Z,11.83
2015-11-02T00:30:27.258Z,12.02
2015-11-02T00:30:39.555Z,12.12
2015-11-02T00:30:51.867Z,12.02
2015-11-02T00:31:04.198Z,11.65
2015-11-02T00:31:16.495Z,11.65
2015-11-02T00:31:28.792Z,11.55
2015-11-02T00:31:41.089Z,11.55
2015-11-02T00:31:53.402Z,11.74
2015-11-02T00:32:05.748Z,11.46
2015-11-02T00:32:18.045Z,11.55
2015-11-02T00:32:30.342Z,11.55
2015-11-02T00:32:42.655Z,11.46
2015-11-02T00:32:54.967Z,11.36
2015-11-02T00:33:07.267Z,11.46
2015-11-02T00:33:19.564Z,11.36
2015-11-02T00:33:31.861Z,11.27
2015-11-02T00:33:44.158Z,11.36
2015-11-02T00:33:56.442Z,11.55
2015-11-02T00:34:08.739Z,11.55
2015-11-02T00:34:21.004Z,11.55
2015-11-02T00:34:33.317Z,11.46
2015-11-02T00:34:45.629Z,11.55
2015-11-02T00:34:57.772Z,11.55
2015-11-02T00:35:10.069Z,11.55
2015-11-02T00:35:22.381Z,11.46
2015-11-02T00:35:34.678Z,11.17
2015-11-02T00:35:46.975Z,11.17
2015-11-02T00:35:59.275Z,11.18
2015-11-02T00:36:11.587Z,11.17
2015-11-02T00:36:23.916Z,11.08
2015-11-02T00:36:36.212Z,11.18
2015-11-02T00:37:14.997Z,10.99
2015-11-02T00:37:27.309Z,10.89
2015-11-02T00:37:39.606Z,10.89
2015-11-02T00:37:51.903Z,10.99
2015-11-02T00:38:04.217Z,10.98
2015-11-02T00:38:16.561Z,11.08
2015-11-02T00:38:28.874Z,11.27
2015-11-02T00:38:41.155Z,11.17
2015-11-02T00:38:53.452Z,11.36
2015-11-02T00:39:05.783Z,10.98
2015-11-02T00:39:18.095Z,11.17
2015-11-02T00:39:30.392Z,11.36
2015-11-02T00:39:42.674Z,11.27
2015-11-02T00:39:54.986Z,11.36
2015-11-02T00:40:07.302Z,11.36
2015-11-02T00:40:19.598Z,11.55
2015-11-02T00:40:31.895Z,11.55
2015-11-02T00:40:44.208Z,11.46
2015-11-02T00:40:56.538Z,11.46
2015-11-02T00:41:08.835Z,11.55
2015-11-02T00:41:21.132Z,11.55
2015-11-02T00:41:33.429Z,11.55
2015-11-02T00:41:45.741Z,11.65
2015-11-02T00:41:58.040Z,11.83
2015-11-02T00:42:10.337Z,11.74
2015-11-02T00:42:22.634Z,11.83
2015-11-02T00:42:34.946Z,11.83
2015-11-02T00:42:47.243Z,11.83
2015-11-02T00:42:59.543Z,11.65
2015-11-02T00:43:11.871Z,12.02
2015-11-02T00:43:24.168Z,12.02
2015-11-02T00:43:36.480Z,12.02
2015-11-02T00:43:48.777Z,12.12
2015-11-02T00:44:01.077Z,11.65
2015-11-02T00:44:13.374Z,11.65
2015-11-02T00:44:25.702Z,12.12
2015-11-02T00:44:37.999Z,12.02
2015-11-02T00:44:50.296Z,12.02
2015-11-02T00:45:02.596Z,11.65
2015-11-02T00:45:14.924Z,11.83
2015-11-02T00:45:27.252Z,11.74
2015-11-02T00:45:39.549Z,11.83
2015-11-02T00:45:51.846Z,11.65
2015-11-02T00:46:04.160Z,11.55
2015-11-02T00:46:16.473Z,11.55
2015-11-02T00:46:28.770Z,11.46
2015-11-02T00:46:41.067Z,11.74
2015-11-02T00:46:53.379Z,11.65
2015-11-02T00:47:05.710Z,11.36
2015-11-02T00:47:18.007Z,11.46
2015-11-02T00:47:30.304Z,11.55
2015-11-02T00:47:42.601Z,11.46
2015-11-02T00:47:54.913Z,11.46
2015-11-02T00:48:07.229Z,11.55
2015-11-02T00:48:19.526Z,11.55
2015-11-02T00:48:31.823Z,11.55
2015-11-02T00:48:44.135Z,11.46
2015-11-02T00:48:56.448Z,11.27
2015-11-02T00:49:08.591Z,11.36
2015-11-02T00:49:20.904Z,11.36
2015-11-02T00:49:33.201Z,11.27
2015-11-02T00:49:45.529Z,11.27
2015-11-02T00:49:57.829Z,11.36
2015-11-02T00:50:10.125Z,11.36
2015-11-02T00:50:22.422Z,11.36
2015-11-02T00:50:34.735Z,10.89
2015-11-02T00:50:47.032Z,11.18
2015-11-02T00:50:59.330Z,11.08
2015-11-02T00:51:11.658Z,10.89
2015-11-02T00:51:23.970Z,10.8
2015-11-02T00:51:36.298Z,10.89
2015-11-02T00:51:48.595Z,10.8
2015-11-02T00:52:00.911Z,10.71
2015-11-02T00:52:13.223Z,10.71
2015-11-02T00:52:25.551Z,10.71
2015-11-02T00:52:37.848Z,10.52
2015-11-02T00:52:50.145Z,10.52
2015-11-02T00:53:02.461Z,10.61
2015-11-02T00:53:14.773Z,10.42
2015-11-02T00:53:27.070Z,10.61
2015-11-02T00:53:39.367Z,10.52
2015-11-02T00:53:51.664Z,10.52
2015-11-02T00:54:03.979Z,10.61
2015-11-02T00:54:16.276Z,10.61
2015-11-02T00:54:28.573Z,10.52
2015-11-02T00:54:40.885Z,10.52
2015-11-02T00:54:53.198Z,10.33
2015-11-02T00:55:05.512Z,10.23
2015-11-02T00:55:17.825Z,10.23
2015-11-02T00:55:30.122Z,10.23
2015-11-02T00:55:42.419Z,10.33
2015-11-02T00:55:54.731Z,10.42
2015-11-02T00:56:07.031Z,10.42
2015-11-02T00:56:19.328Z,10.52
2015-11-02T00:56:31.625Z,10.42
2015-11-02T00:56:43.937Z,10.52
2015-11-02T00:56:56.234Z,10.61
2015-11-02T00:57:08.534Z,10.61
2015-11-02T00:57:20.831Z,10.61
2015-11-02T00:57:33.143Z,10.71
2015-11-02T00:57:45.440Z,10.71
2015-11-02T00:57:57.740Z,10.8
2015-11-02T00:58:10.037Z,10.99
2015-11-02T00:58:22.350Z,10.8
2015-11-02T00:58:34.662Z,10.71
2015-11-02T00:58:46.959Z,10.99
2015-11-02T00:58:59.273Z,10.71
2015-11-02T00:59:11.586Z,10.8
2015-11-02T00:59:23.883Z,10.71
2015-11-02T00:59:36.180Z,10.8
2015-11-02T00:59:48.477Z,10.89
2015-11-02T01:00:00.776Z,10.89
2015-11-02T01:00:13.105Z,10.89
2015-11-02T01:00:25.401Z,10.89
2015-11-02T01:00:37.714Z,10.8
2015-11-02T01:00:50.011Z,10.8
2015-11-02T01:01:02.326Z,10.8
2015-11-02T01:01:14.623Z,10.8
2015-11-02T01:01:26.920Z,10.89
2015-11-02T01:01:39.217Z,10.89
2015-11-02T01:01:51.529Z,10.89
2015-11-02T01:02:03.829Z,10.8
2015-11-02T01:02:16.142Z,10.71
2015-11-02T01:02:28.439Z,10.71
2015-11-02T01:02:40.751Z,10.61
2015-11-02T01:02:53.064Z,10.71
2015-11-02T01:03:05.363Z,10.71
2015-11-02T01:03:17.659Z,10.61
2015-11-02T01:03:29.800Z,10.52
2015-11-02T01:03:42.128Z,10.61
2015-11-02T01:03:54.269Z,10.33
2015-11-02T01:04:06.428Z,10.52
2015-11-02T01:04:18.725Z,10.52
2015-11-02T01:04:31.037Z,10.52
2015-11-02T01:04:43.334Z,10.71
2015-11-02T01:04:55.616Z,10.71
2015-11-02T01:05:07.931Z,10.71
2015-11-02T01:05:20.244Z,10.71
2015-11-02T01:05:32.540Z,10.8
2015-11-02T01:05:44.837Z,10.61
2015-11-02T01:05:57.134Z,10.71
2015-11-02T01:06:09.465Z,10.71
2015-11-02T01:06:21.762Z,10.71
2015-11-02T01:06:34.075Z,10.71
2015-11-02T01:06:46.372Z,10.99
2015-11-02T01:06:58.685Z,10.89
2015-11-02T01:07:11.013Z,10.8
2015-11-02T01:07:23.294Z,10.8
2015-11-02T01:07:35.591Z,10.89
2015-11-02T01:07:47.888Z,10.61
2015-11-02T01:08:00.047Z,10.89
2015-11-02T01:08:12.360Z,10.89
2015-11-02T01:08:24.641Z,10.61
2015-11-02T01:08:36.938Z,10.8
2015-11-02T01:08:49.235Z,10.89
2015-11-02T01:09:01.535Z,10.8
2015-11-02T01:09:13.816Z,10.8
2015-11-02T01:09:26.113Z,10.99
2015-11-02T01:09:38.410Z,10.8
2015-11-02T01:09:50.738Z,10.8
2015-11-02T01:10:02.882Z,10.8
2015-11-02T01:10:15.178Z,10.8
2015-11-02T01:10:27.475Z,10.99
2015-11-02T01:10:39.803Z,11.18
2015-11-02T01:10:52.100Z,11.18
2015-11-02T01:11:04.415Z,11.08
2015-11-02T01:11:16.712Z,11.27
2015-11-02T01:11:29.040Z,11.36
2015-11-02T01:11:41.337Z,11.55
2015-11-02T01:11:53.634Z,11.36
2015-11-02T01:12:05.950Z,11.46
2015-11-02T01:12:18.106Z,11.36
2015-11-02T01:12:30.403Z,11.36
2015-11-02T01:12:42.700Z,11.08
2015-11-02T01:12:54.997Z,11.46
2015-11-02T01:13:07.155Z,11.08
2015-11-02T01:13:19.483Z,11.17
2015-11-02T01:13:31.780Z,11.17
2015-11-02T01:13:44.077Z,11.08
2015-11-02T01:13:56.390Z,11.36
2015-11-02T01:14:08.705Z,11.36
2015-11-02T01:14:21.002Z,11.27
2015-11-02T01:14:33.299Z,11.27
2015-11-02T01:14:45.596Z,11.36
2015-11-02T01:14:57.910Z,11.27
2015-11-02T01:15:10.207Z,11.36
2015-11-02T01:15:22.363Z,11.46
2015-11-02T01:15:34.645Z,11.36
2015-11-02T01:15:46.973Z,11.55
2015-11-02T01:15:59.273Z,11.46
2015-11-02T01:16:11.569Z,11.65
2015-11-02T01:16:23.882Z,11.55
2015-11-02T01:16:36.194Z,11.55
2015-11-02T01:16:48.507Z,11.55
2015-11-02T01:17:00.807Z,11.74
2015-11-02T01:17:13.104Z,11.55
2015-11-02T01:17:25.416Z,11.65
2015-11-02T01:17:37.729Z,11.65
2015-11-02T01:17:50.026Z,11.65
2015-11-02T01:18:02.325Z,11.74
2015-11-02T01:18:14.638Z,11.83
2015-11-02T01:18:26.950Z,11.65
2015-11-02T01:18:39.247Z,11.74
2015-11-02T01:18:51.544Z,11.74
2015-11-02T01:19:03.843Z,11.93
2015-11-02T01:19:16.156Z,12.02
2015-11-02T01:19:28.468Z,11.83
2015-11-02T01:19:40.765Z,12.02
2015-11-02T01:19:53.062Z,12.02
2015-11-02T01:20:05.377Z,12.12
2015-11-02T01:20:17.690Z,12.31
2015-11-02T01:20:29.987Z,12.12
2015-11-02T01:20:42.284Z,12.21
2015-11-02T01:20:54.596Z,12.21
2015-11-02T01:21:06.912Z,12.59
2015-11-02T01:21:19.224Z,12.5
2015-11-02T01:21:31.521Z,12.5
2015-11-02T01:21:43.818Z,12.5
2015-11-02T01:21:56.130Z,12.5
2015-11-02T01:22:08.446Z,12.59
2015-11-02T01:22:20.743Z,12.5
2015-11-02T01:22:33.040Z,12.4
2015-11-02T01:22:45.352Z,12.5
2015-11-02T01:22:57.870Z,12.4
2015-11-02T01:23:10.167Z,12.5
2015-11-02T01:23:22.495Z,12.4
2015-11-02T01:23:34.792Z,12.5
2015-11-02T01:23:47.088Z,12.31
2015-11-02T01:23:59.404Z,12.5
2015-11-02T01:24:11.701Z,12.31
2015-11-02T01:24:24.013Z,12.31
2015-11-02T01:24:36.326Z,12.4
2015-11-02T01:24:48.623Z,12.5
2015-11-02T01:25:00.937Z,12.59
2015-11-02T01:25:13.250Z,12.5
2015-11-02T01:25:25.562Z,12.5
2015-11-02T01:25:37.859Z,12.4
2015-11-02T01:25:50.156Z,12.4
2015-11-02T01:26:02.487Z,12.59
2015-11-02T01:26:14.800Z,12.59
2015-11-02T01:26:27.081Z,12.5
2015-11-02T01:26:39.378Z,12.4
2015-11-02T01:26:51.690Z,12.21
2015-11-02T01:27:04.006Z,12.21
2015-11-02T01:27:16.303Z,12.4
2015-11-02T01:27:28.599Z,12.31
2015-11-02T01:27:40.912Z,12.31
2015-11-02T01:27:53.224Z,12.31
2015-11-02T01:28:05.524Z,12.21
2015-11-02T01:28:17.821Z,12.4
2015-11-02T01:28:30.118Z,12.59
2015-11-02T01:28:42.446Z,12.59
2015-11-02T01:28:54.743Z,12.5
2015-11-02T01:29:07.042Z,12.69
2015-11-02T01:29:19.339Z,12.77
2015-11-02T01:29:31.651Z,12.88
2015-11-02T01:29:43.948Z,13.15
2015-11-02T01:29:56.245Z,12.96
2015-11-02T01:30:08.545Z,12.97
2015-11-02T01:30:20.701Z,13.06
2015-11-02T01:30:33.029Z,13.15
2015-11-02T01:30:45.311Z,13.34
2015-11-02T01:30:57.607Z,13.06
2015-11-02T01:31:09.939Z,13.06
2015-11-02T01:31:22.235Z,12.96
2015-11-02T01:31:34.548Z,12.96
2015-11-02T01:31:46.845Z,13.06
2015-11-02T01:31:59.142Z,13.06
2015-11-02T01:32:11.473Z,12.96
2015-11-02T01:32:23.754Z,12.87
2015-11-02T01:32:36.051Z,12.77
2015-11-02T01:32:48.348Z,12.5
2015-11-02T01:33:00.678Z,12.59
2015-11-02T01:33:12.975Z,12.78
2015-11-02T01:33:25.272Z,12.68
2015-11-02T01:33:37.569Z,12.5
2015-11-02T01:33:49.881Z,12.5
2015-11-02T01:34:02.196Z,12.59
2015-11-02T01:34:14.492Z,12.5
2015-11-02T01:34:26.789Z,12.5
2015-11-02T01:34:39.086Z,12.4
2015-11-02T01:34:51.399Z,12.59
2015-11-02T01:35:03.699Z,12.59
2015-11-02T01:35:15.995Z,12.5
2015-11-02T01:35:28.308Z,12.59
2015-11-02T01:35:40.620Z,12.5
2015-11-02T01:35:52.933Z,12.59
2015-11-02T01:36:05.233Z,12.4
2015-11-02T01:36:17.530Z,12.4
2015-11-02T01:36:29.842Z,12.4
2015-11-02T01:36:42.155Z,12.59
2015-11-02T01:36:54.452Z,12.69
2015-11-02T01:37:06.767Z,12.4
2015-11-02T01:37:19.064Z,12.21
2015-11-02T01:37:31.392Z,12.31
2015-11-02T01:37:43.705Z,12.31
2015-11-02T01:37:56.001Z,12.31
2015-11-02T01:38:08.285Z,12.31
2015-11-02T01:38:20.582Z,12.4
2015-11-02T01:38:32.894Z,12.21
2015-11-02T01:38:45.207Z,12.4
2015-11-02T01:38:57.535Z,12.4
2015-11-02T01:39:09.866Z,12.31
2015-11-02T01:39:22.163Z,12.4
2015-11-02T01:39:34.444Z,12.31
2015-11-02T01:39:46.741Z,12.31
2015-11-02T01:39:59.022Z,12.31
2015-11-02T01:40:11.322Z,12.21
2015-11-02T01:40:23.619Z,12.21
2015-11-02T01:40:35.931Z,12.4
2015-11-02T01:40:48.244Z,12.12
2015-11-02T01:41:00.574Z,12.12
2015-11-02T01:41:12.918Z,12.21
2015-11-02T01:41:25.215Z,12.12
2015-11-02T01:41:37.511Z,12.02
2015-11-02T01:41:49.824Z,12.21
2015-11-02T01:42:02.124Z,12.21
2015-11-02T01:42:14.421Z,11.93
2015-11-02T01:42:26.718Z,11.93
2015-11-02T01:42:39.030Z,11.83
2015-11-02T01:42:51.327Z,11.74
2015-11-02T01:43:03.642Z,11.74
2015-11-02T01:43:15.971Z,11.74
2015-11-02T01:43:28.267Z,11.83
2015-11-02T01:43:40.549Z,11.74
2015-11-02T01:43:52.846Z,11.65
2015-11-02T01:44:05.161Z,11.55
2015-11-02T01:44:17.458Z,11.55
2015-11-02T01:44:29.755Z,11.55
2015-11-02T01:44:42.052Z,11.55
2015-11-02T01:44:54.364Z,11.55
2015-11-02T01:45:06.694Z,11.46
2015-11-02T01:45:19.007Z,11.46
2015-11-02T01:45:31.351Z,11.55
2015-11-02T01:45:43.647Z,11.46
2015-11-02T01:45:55.944Z,11.55
2015-11-02T01:46:08.088Z,11.74
2015-11-02T01:46:20.385Z,11.46
2015-11-02T01:46:32.682Z,11.46
2015-11-02T01:46:44.838Z,11.46
2015-11-02T01:46:57.150Z,11.55
2015-11-02T01:47:09.465Z,11.46
2015-11-02T01:47:21.793Z,11.55
2015-11-02T01:47:34.137Z,11.55
2015-11-02T01:47:46.434Z,11.46
2015-11-02T01:47:58.715Z,11.46
2015-11-02T01:48:11.016Z,11.46
2015-11-02T01:48:23.313Z,11.65
2015-11-02T01:48:35.610Z,11.55
2015-11-02T01:48:47.938Z,11.55
2015-11-02T01:49:00.110Z,11.55
2015-11-02T01:49:12.471Z,11.36
2015-11-02T01:49:24.815Z,11.55
2015-11-02T01:49:37.112Z,11.46
2015-11-02T01:49:49.408Z,11.65
2015-11-02T01:50:01.693Z,11.55
2015-11-02T01:50:13.990Z,11.65
2015-11-02T01:50:26.286Z,11.74
2015-11-02T01:50:38.599Z,11.74
2015-11-02T01:50:50.911Z,11.74
2015-11-02T01:51:03.226Z,11.93
2015-11-02T01:51:15.538Z,11.83
2015-11-02T01:51:27.867Z,11.65
2015-11-02T01:51:40.163Z,11.74
2015-11-02T01:51:52.460Z,11.83
2015-11-02T01:52:04.760Z,11.74
2015-11-02T01:52:17.057Z,11.65
2015-11-02T01:52:29.354Z,11.83
2015-11-02T01:52:41.651Z,11.93
2015-11-02T01:52:53.948Z,11.83
2015-11-02T01:53:06.278Z,11.93
2015-11-02T01:53:18.606Z,11.93
2015-11-02T01:53:30.887Z,12.21
2015-11-02T01:53:43.184Z,11.93
2015-11-02T01:53:55.481Z,12.02
2015-11-02T01:54:07.781Z,11.93
2015-11-02T01:54:20.093Z,12.12
2015-11-02T01:54:32.375Z,12.21
2015-11-02T01:54:44.687Z,12.02
2015-11-02T01:54:57.000Z,12.02
2015-11-02T01:55:09.331Z,12.21
2015-11-02T01:55:21.628Z,12.12
2015-11-02T01:55:33.924Z,11.93
2015-11-02T01:55:46.221Z,11.93
2015-11-02T01:55:58.503Z,11.83
2015-11-02T01:56:10.834Z,12.02
2015-11-02T01:56:23.146Z,11.93
2015-11-02T01:56:35.459Z,11.93
2015-11-02T01:56:47.756Z,12.21
2015-11-02T01:57:00.084Z,12.12
2015-11-02T01:57:12.414Z,12.02
2015-11-02T01:57:24.711Z,12.12
2015-11-02T01:57:36.539Z,12.31
2015-11-02T01:57:48.695Z,12.3
2015-11-02T01:58:00.995Z,12.3
2015-11-02T01:58:13.159Z,12.21
2015-11-02T01:58:25.883Z,12.4
2015-11-02T01:58:38.211Z,12.49
2015-11-02T01:58:50.539Z,12.59
2015-11-02T01:59:02.870Z,12.5
2015-11-02T01:59:15.167Z,12.69
2015-11-02T01:59:27.464Z,12.59
2015-11-02T01:59:39.761Z,12.77
2015-11-02T01:59:52.057Z,12.96
2015-11-02T02:00:04.357Z,12.87
2015-11-02T02:00:16.654Z,12.77
2015-11-02T02:00:28.967Z,13.06
2015-11-02T02:00:41.279Z,13.06
2015-11-02T02:00:53.607Z,13.06
2015-11-02T02:01:05.907Z,12.96
2015-11-02T02:01:18.204Z,12.96
2015-11-02T02:01:30.501Z,12.96
2015-11-02T02:01:42.798Z,12.96
2015-11-02T02:01:55.110Z,12.96
2015-11-02T02:02:07.409Z,12.96
2015-11-02T02:02:19.722Z,12.87
2015-11-02T02:02:32.050Z,12.77
2015-11-02T02:02:44.378Z,12.87
2015-11-02T02:02:56.706Z,12.87
2015-11-02T02:03:09.036Z,12.4
2015-11-02T02:03:21.380Z,12.49
2015-11-02T02:03:33.677Z,12.4
2015-11-02T02:03:45.974Z,12.4
2015-11-02T02:03:58.271Z,12.59
2015-11-02T02:04:10.587Z,12.49
2015-11-02T02:04:22.884Z,12.49
2015-11-02T02:04:35.181Z,12.49
2015-11-02T02:04:47.493Z,12.59
2015-11-02T02:04:59.806Z,12.49
2015-11-02T02:05:11.980Z,12.59
2015-11-02T02:05:24.323Z,12.49
2015-11-02T02:05:36.652Z,12.87
2015-11-02T02:05:48.948Z,12.59
2015-11-02T02:06:01.248Z,12.49
2015-11-02T02:06:13.545Z,12.49
2015-11-02T02:06:25.842Z,12.49
2015-11-02T02:06:38.139Z,12.59
2015-11-02T02:06:50.436Z,12.49
2015-11-02T02:07:02.750Z,12.49
2015-11-02T02:07:15.078Z,12.49
2015-11-02T02:07:27.407Z,12.49
2015-11-02T02:07:39.688Z,12.49
2015-11-02T02:07:51.985Z,12.21
2015-11-02T02:08:04.285Z,12.3
2015-11-02T02:08:16.581Z,12.3
2015-11-02T02:08:28.878Z,12.3
2015-11-02T02:08:41.191Z,12.3
2015-11-02T02:08:53.503Z,12.21
2015-11-02T02:09:05.834Z,12.49
2015-11-02T02:09:18.163Z,12.59
2015-11-02T02:09:30.506Z,12.59
2015-11-02T02:09:42.803Z,12.49
2015-11-02T02:09:55.084Z,12.59
2015-11-02T02:10:07.400Z,12.59
2015-11-02T02:10:19.697Z,12.77
2015-11-02T02:10:31.978Z,12.59
2015-11-02T02:10:44.291Z,12.68
2015-11-02T02:10:56.603Z,12.59
2015-11-02T02:11:08.933Z,12.68
2015-11-02T02:11:21.246Z,12.68
2015-11-02T02:11:33.574Z,12.49
2015-11-02T02:11:45.871Z,12.4
2015-11-02T02:11:58.152Z,12.49
2015-11-02T02:12:10.296Z,12.49
2015-11-02T02:12:22.608Z,12.49
2015-11-02T02:12:34.889Z,12.59
2015-11-02T02:12:47.202Z,12.49
2015-11-02T02:12:59.499Z,12.4
2015-11-02T02:13:11.830Z,12.21
2015-11-02T02:13:24.142Z,12.21
2015-11-02T02:13:36.470Z,12.4
2015-11-02T02:13:48.752Z,12.49
2015-11-02T02:14:01.080Z,12.4
2015-11-02T02:14:13.380Z,12.59
2015-11-02T02:14:25.677Z,12.49
2015-11-02T02:14:37.973Z,12.49
2015-11-02T02:14:50.270Z,12.4
2015-11-02T02:15:02.585Z,12.4
2015-11-02T02:15:14.913Z,12.59
2015-11-02T02:15:27.241Z,12.68
2015-11-02T02:15:39.538Z,12.68
2015-11-02T02:15:51.835Z,12.77
2015-11-02T02:16:04.135Z,12.68
2015-11-02T02:16:16.432Z,12.68
2015-11-02T02:16:28.728Z,12.87
2015-11-02T02:16:41.041Z,12.77
2015-11-02T02:16:53.369Z,12.49
2015-11-02T02:17:05.700Z,12.21
2015-11-02T02:17:18.044Z,12.3
2015-11-02T02:17:30.341Z,12.4
2015-11-02T02:17:42.638Z,12.49
2015-11-02T02:17:54.935Z,12.4
2015-11-02T02:18:07.218Z,12.49
2015-11-02T02:18:19.515Z,12.49
2015-11-02T02:18:31.796Z,12.59
2015-11-02T02:18:44.093Z,12.49
2015-11-02T02:18:56.390Z,12.59
2015-11-02T02:19:08.704Z,12.59
2015-11-02T02:19:20.985Z,12.49
2015-11-02T02:19:33.282Z,12.59
2015-11-02T02:19:45.564Z,12.49
2015-11-02T02:19:57.845Z,12.59
2015-11-02T02:20:10.160Z,12.4
2015-11-02T02:20:22.473Z,12.49
2015-11-02T02:20:34.785Z,12.21
2015-11-02T02:20:47.129Z,12.49
2015-11-02T02:20:59.457Z,12.49
2015-11-02T02:21:11.773Z,12.49
2015-11-02T02:21:24.070Z,12.21
2015-11-02T02:21:36.366Z,12.21
2015-11-02T02:21:48.679Z,12.4
2015-11-02T02:22:00.960Z,12.49
2015-11-02T02:22:13.260Z,12.4
2015-11-02T02:22:25.557Z,12.49
2015-11-02T02:22:37.869Z,12.4
2015-11-02T02:22:50.182Z,12.59
2015-11-02T02:23:02.528Z,12.49
2015-11-02T02:23:14.856Z,12.59
2015-11-02T02:23:27.153Z,12.49
2015-11-02T02:23:39.465Z,12.4
2015-11-02T02:23:51.762Z,12.4
2015-11-02T02:24:04.062Z,12.49
2015-11-02T02:24:16.359Z,12.49
2015-11-02T02:24:28.656Z,12.49
2015-11-02T02:24:40.968Z,12.49
2015-11-02T02:24:53.296Z,12.49
2015-11-02T02:25:05.627Z,12.4
2015-11-02T02:25:17.940Z,12.49
2015-11-02T02:25:30.159Z,12.49
2015-11-02T02:25:42.456Z,12.4
2015-11-02T02:25:54.768Z,12.49
2015-11-02T02:26:07.068Z,12.49
2015-11-02T02:26:19.365Z,12.49
2015-11-02T02:26:31.662Z,12.21
2015-11-02T02:26:43.959Z,12.21
2015-11-02T02:26:56.271Z,12.49
2015-11-02T02:27:08.586Z,12.3
2015-11-02T02:27:20.914Z,12.4
2015-11-02T02:27:33.257Z,12.12
2015-11-02T02:27:45.586Z,12.12
2015-11-02T02:27:57.898Z,12.12
2015-11-02T02:28:10.198Z,11.83
2015-11-02T02:28:22.495Z,12.21
2015-11-02T02:28:34.807Z,11.73
2015-11-02T02:28:47.104Z,12.02
2015-11-02T02:28:59.401Z,12.02
2015-11-02T02:29:11.701Z,12.02
2015-11-02T02:29:24.029Z,12.12
2015-11-02T02:29:36.357Z,12.12
2015-11-02T02:29:48.685Z,11.83
2015-11-02T02:30:01.013Z,12.02
2015-11-02T02:30:13.329Z,11.73
2015-11-02T02:30:25.626Z,11.74
2015-11-02T02:30:37.923Z,11.83
2015-11-02T02:30:50.204Z,11.83
2015-11-02T02:31:02.518Z,11.83
2015-11-02T02:31:14.831Z,11.83
2015-11-02T02:31:27.159Z,11.83
2015-11-02T02:31:39.472Z,11.83
2015-11-02T02:31:51.784Z,11.93
2015-11-02T02:32:04.115Z,11.73
2015-11-02T02:32:16.443Z,11.73
2015-11-02T02:32:28.787Z,11.65
2015-11-02T02:32:41.084Z,11.92
2015-11-02T02:32:53.381Z,11.64
2015-11-02T02:33:05.664Z,11.74
2015-11-02T02:33:17.961Z,11.73
2015-11-02T02:33:30.258Z,11.83
2015-11-02T02:33:42.586Z,11.73
2015-11-02T02:33:54.898Z,11.64
2015-11-02T02:34:07.215Z,12.02
2015-11-02T02:34:19.543Z,11.92
2015-11-02T02:34:31.887Z,11.92
2015-11-02T02:34:44.199Z,11.73
2015-11-02T02:34:56.481Z,11.73
2015-11-02T02:35:08.810Z,12.12
2015-11-02T02:35:21.091Z,12.12
2015-11-02T02:35:33.403Z,12.12
2015-11-02T02:35:45.716Z,12.02
2015-11-02T02:35:58.028Z,12.12
2015-11-02T02:36:10.360Z,12.02
2015-11-02T02:36:22.703Z,11.92
2015-11-02T02:36:35.016Z,11.73
2015-11-02T02:36:47.313Z,11.73
2015-11-02T02:36:59.610Z,11.92
2015-11-02T02:37:11.925Z,11.83
2015-11-02T02:37:24.222Z,12.02
2015-11-02T02:37:36.534Z,12.02
2015-11-02T02:37:48.847Z,11.73
2015-11-02T02:38:01.144Z,11.64
2015-11-02T02:38:13.475Z,11.73
2015-11-02T02:38:25.819Z,11.73
2015-11-02T02:38:38.116Z,11.73
2015-11-02T02:38:50.428Z,11.73
2015-11-02T02:39:02.727Z,11.73
2015-11-02T02:39:15.039Z,11.73
2015-11-02T02:39:27.336Z,11.73